Time;durP1;ratioP1;P1;durP2;ratioP2;P2;SDS_P1;SDS_P2;PMS_P1;PMS_P2;Temp;Humidity;BMP_temperature;BMP_pressure;BME280_temperature;BME280_humidity;BME280_pressure;Samples;Min_cycle;Max_cycle;Signal;HPM_P1;HPM_P2
2023/11/05 00:02:42;;;;;;;1.15;0.90;;;;;;;10.34;62.33;96061.63;10516558;28;20075;-66
2023/11/05 00:07:45;;;;;;;2.17;0.75;;;;;;;10.37;61.87;96049.03;10517714;28;20044;-66
2023/11/05 00:12:46;;;;;;;4.07;1.67;;;;;;;10.38;61.81;96042.81;10515393;28;20047;-66
2023/11/05 00:17:48;;;;;;;2.15;0.90;;;;;;;10.22;62.28;96039.59;10517290;28;21906;-65
2023/11/05 00:22:50;;;;;;;1.98;0.80;;;;;;;10.19;62.39;96034.75;10518090;28;20040;-65
2023/11/05 00:27:52;;;;;;;3.10;0.85;;;;;;;10.15;62.59;96031.72;10500102;28;20254;-65
2023/11/05 00:32:54;;;;;;;2.15;1.20;;;;;;;10.21;62.62;96028.38;10530816;27;20493;-66
2023/11/05 00:37:56;;;;;;;0.50;0.50;;;;;;;10.30;62.37;96021.22;10500485;28;20660;-65
2023/11/05 00:42:59;;;;;;;1.35;0.50;;;;;;;10.32;62.70;96030.47;10500053;28;20052;-65
2023/11/05 00:48:01;;;;;;;2.08;0.90;;;;;;;10.34;62.96;96009.41;10498220;28;20044;-65
2023/11/05 00:53:03;;;;;;;2.03;0.85;;;;;;;10.30;63.32;96003.75;10517474;28;20162;-65
2023/11/05 00:58:05;;;;;;;3.40;1.27;;;;;;;10.33;63.53;95997.34;10480794;28;20136;-66
2023/11/05 01:03:07;;;;;;;2.00;0.75;;;;;;;10.38;63.47;95979.31;10481523;28;20373;-65
2023/11/05 01:08:09;;;;;;;3.70;1.35;;;;;;;10.47;63.64;95972.97;10513798;28;20052;-65
2023/11/05 01:13:11;;;;;;;1.05;0.80;;;;;;;10.40;64.02;95966.88;10516217;28;20064;-65
2023/11/05 01:18:13;;;;;;;2.38;0.85;;;;;;;10.35;64.28;95961.41;10514875;28;20474;-66
2023/11/05 01:23:15;;;;;;;1.20;0.63;;;;;;;10.28;64.78;95968.34;10497126;28;21115;-66
2023/11/05 01:28:17;;;;;;;4.50;0.93;;;;;;;10.25;64.88;95966.13;10513647;28;20133;-66
2023/11/05 01:33:20;;;;;;;0.75;0.75;;;;;;;10.21;65.45;95949.22;10494949;28;20043;-66
2023/11/05 01:38:22;;;;;;;3.85;1.13;;;;;;;10.11;65.69;95940.88;10498264;28;20054;-66
2023/11/05 01:43:24;;;;;;;1.65;0.60;;;;;;;10.12;66.09;95940.69;10496655;28;20036;-66
2023/11/05 01:48:27;;;;;;;2.05;1.17;;;;;;;10.14;65.92;95914.41;10513374;28;20048;-65
2023/11/05 01:53:29;;;;;;;0.98;0.60;;;;;;;10.21;66.00;95904.84;10514631;28;20040;-66
2023/11/05 01:58:31;;;;;;;1.13;0.82;;;;;;;10.15;66.36;95898.56;10512951;28;20044;-66
2023/11/05 02:03:33;;;;;;;2.85;1.13;;;;;;;10.15;66.54;95889.91;10494814;28;20052;-66
2023/11/05 02:08:38;;;;;;;1.13;0.80;;;;;;;10.10;66.63;95887.03;10512977;28;20040;-66
2023/11/05 02:13:52;;;;;;;0.70;0.40;;;;;;;10.24;66.67;95883.56;10512667;28;20047;-66
2023/11/05 02:18:55;;;;;;;1.80;1.00;;;;;;;10.23;66.61;95876.75;10512754;28;20035;-65
2023/11/05 02:23:57;;;;;;;2.33;0.75;;;;;;;10.15;66.91;95866.41;10511891;28;20050;-64
2023/11/05 02:28:59;;;;;;;1.38;0.50;;;;;;;10.13;67.21;95858.78;10478893;28;20131;-64
2023/11/05 02:34:02;;;;;;;0.65;0.65;;;;;;;10.20;66.91;95857.03;10489523;28;20036;-64
2023/11/05 02:39:04;;;;;;;0.35;0.35;;;;;;;10.23;66.89;95850.63;10512194;28;20055;-64
2023/11/05 02:44:06;;;;;;;1.65;0.63;;;;;;;10.13;67.09;95852.75;10492447;28;20542;-64
2023/11/05 02:49:09;;;;;;;0.50;0.47;;;;;;;10.17;66.97;95840.94;10509483;28;20054;-64
2023/11/05 02:54:11;;;;;;;0.43;0.43;;;;;;;10.07;67.35;95835.22;10509023;28;20072;-65
2023/11/05 02:59:17;;;;;;;3.35;0.70;;;;;;;10.06;67.92;95825.75;10510446;28;20688;-65
2023/11/05 03:04:19;;;;;;;2.72;0.77;;;;;;;10.13;67.21;95829.25;10523766;28;20042;-65
2023/11/05 03:09:24;;;;;;;2.55;0.73;;;;;;;10.13;67.18;95829.25;10508902;28;20047;-65
2023/11/05 03:14:26;;;;;;;3.22;0.60;;;;;;;10.09;67.41;95828.00;10514333;28;20419;-65
2023/11/05 03:19:28;;;;;;;2.65;0.45;;;;;;;10.17;66.86;95825.28;10511433;28;20166;-64
2023/11/05 03:24:30;;;;;;;2.47;0.70;;;;;;;10.21;67.07;95816.06;10492859;28;20070;-64
2023/11/05 03:29:32;;;;;;;1.35;0.50;;;;;;;10.29;66.67;95821.16;10493267;28;20040;-64
2023/11/05 03:34:34;;;;;;;2.95;1.50;;;;;;;10.31;66.83;95822.59;10518698;28;20044;-64
2023/11/05 03:39:37;;;;;;;2.55;0.80;;;;;;;10.29;66.65;95819.34;10503965;28;20809;-64
2023/11/05 03:44:39;;;;;;;0.63;0.52;;;;;;;10.28;66.75;95828.16;10518658;28;20044;-64
2023/11/05 03:49:41;;;;;;;1.83;0.98;;;;;;;10.25;66.51;95812.91;10493521;28;20060;-64
2023/11/05 03:54:44;;;;;;;1.55;0.55;;;;;;;10.24;66.69;95813.06;10519152;28;20067;-64
2023/11/05 03:59:47;;;;;;;2.88;0.70;;;;;;;10.24;66.72;95818.28;10520315;28;20109;-64
2023/11/05 04:04:51;;;;;;;0.52;0.35;;;;;;;10.30;66.34;95809.69;10517289;28;21062;-64
2023/11/05 04:09:53;;;;;;;1.40;0.52;;;;;;;10.25;66.45;95796.41;10497548;28;20059;-64
2023/11/05 04:14:55;;;;;;;3.50;1.27;;;;;;;10.16;66.63;95781.88;10501104;28;20143;-66
2023/11/05 04:19:57;;;;;;;1.02;0.90;;;;;;;10.13;66.34;95779.66;10514459;28;20138;-64
2023/11/05 04:24:59;;;;;;;1.83;0.80;;;;;;;10.08;66.51;95768.97;10501559;28;20454;-64
2023/11/05 04:30:01;;;;;;;2.80;0.65;;;;;;;10.22;66.05;95778.50;10517296;28;20051;-65
2023/11/05 04:35:04;;;;;;;1.30;0.70;;;;;;;10.21;65.94;95769.06;10516923;28;20058;-65
2023/11/05 04:40:07;;;;;;;0.50;0.50;;;;;;;10.21;65.98;95776.91;10516044;28;20040;-64
2023/11/05 04:45:10;;;;;;;1.55;0.52;;;;;;;10.26;65.59;95783.16;10514793;28;20040;-64
2023/11/05 04:50:12;;;;;;;0.85;0.65;;;;;;;10.39;65.59;95793.72;10483459;28;20067;-64
2023/11/05 04:55:14;;;;;;;0.47;0.32;;;;;;;10.49;65.60;95798.59;10498845;28;20128;-65
2023/11/05 05:00:17;;;;;;;0.55;0.50;;;;;;;10.44;65.44;95785.28;10495656;28;20054;-65
2023/11/05 05:05:19;;;;;;;1.25;0.80;;;;;;;10.47;65.57;95779.69;10513752;28;20498;-65
2023/11/05 05:10:21;;;;;;;1.30;0.60;;;;;;;10.49;65.35;95773.28;10514520;28;20110;-65
2023/11/05 05:15:23;;;;;;;0.65;0.43;;;;;;;10.43;65.54;95776.66;10515559;28;20044;-64
2023/11/05 05:20:25;;;;;;;0.65;0.38;;;;;;;10.38;65.71;95781.63;10514179;28;21277;-66
2023/11/05 05:25:28;;;;;;;2.90;1.25;;;;;;;10.37;65.79;95774.00;10510326;28;20081;-65
2023/11/05 05:30:30;;;;;;;0.80;0.40;;;;;;;10.38;65.69;95776.41;10514350;28;20051;-65
2023/11/05 05:35:32;;;;;;;1.30;0.47;;;;;;;10.33;65.80;95773.59;10497186;28;20474;-65
2023/11/05 05:40:34;;;;;;;0.52;0.52;;;;;;;10.46;65.69;95786.72;10514097;28;20694;-65
2023/11/05 05:45:36;;;;;;;0.52;0.38;;;;;;;10.47;65.41;95788.34;10514211;28;20035;-65
2023/11/05 05:50:38;;;;;;;1.27;0.40;;;;;;;10.44;65.52;95790.50;10512362;28;20040;-65
2023/11/05 05:55:40;;;;;;;0.38;0.38;;;;;;;10.45;65.34;95786.91;10496942;28;20060;-65
2023/11/05 06:00:46;;;;;;;0.20;0.20;;;;;;;10.46;65.33;95797.16;10512693;28;20048;-65
2023/11/05 06:05:48;;;;;;;1.48;0.70;;;;;;;10.54;65.20;95798.03;10510401;28;20043;-65
2023/11/05 06:10:50;;;;;;;1.10;0.50;;;;;;;10.59;65.08;95793.00;10486661;28;20084;-66
2023/11/05 06:15:52;;;;;;;0.47;0.30;;;;;;;10.68;64.82;95800.53;10505195;28;20040;-66
2023/11/05 06:20:54;;;;;;;1.95;0.55;;;;;;;10.66;64.91;95814.78;10493783;28;20083;-66
2023/11/05 06:25:56;;;;;;;0.55;0.55;;;;;;;10.67;64.78;95814.56;10506626;28;20407;-65
2023/11/05 06:30:58;;;;;;;0.80;0.45;;;;;;;10.73;64.63;95819.03;10499902;28;20172;-64
2023/11/05 06:36:01;;;;;;;0.65;0.55;;;;;;;10.76;64.58;95826.50;10474073;28;20131;-65
2023/11/05 06:41:03;;;;;;;3.13;1.00;;;;;;;10.57;64.74;95836.81;10495151;28;20040;-65
2023/11/05 06:46:06;;;;;;;0.35;0.22;;;;;;;10.59;64.73;95837.44;10498014;28;20067;-65
2023/11/05 06:51:08;;;;;;;0.30;0.30;;;;;;;10.73;64.56;95842.56;10503870;28;20048;-65
2023/11/05 06:56:10;;;;;;;0.35;0.35;;;;;;;10.76;64.43;95857.06;10490739;28;20129;-65
2023/11/05 07:01:12;;;;;;;1.02;0.68;;;;;;;10.80;64.24;95853.88;10511265;28;20537;-65
2023/11/05 07:06:15;;;;;;;0.20;0.20;;;;;;;10.78;64.49;95855.88;10534463;27;20063;-67
2023/11/05 07:11:17;;;;;;;0.43;0.30;;;;;;;10.86;64.26;95850.50;10519550;28;20396;-67
2023/11/05 07:16:19;;;;;;;0.88;0.65;;;;;;;10.91;64.18;95858.53;10519559;28;20047;-66
2023/11/05 07:21:22;;;;;;;0.63;0.40;;;;;;;10.91;64.12;95858.53;10499706;28;20492;-67
2023/11/05 07:26:24;;;;;;;1.08;0.47;;;;;;;10.92;64.04;95862.78;10531758;27;20129;-67
2023/11/05 07:31:26;;;;;;;0.20;0.20;;;;;;;10.90;64.13;95862.19;10517266;28;21181;-67
2023/11/05 07:36:28;;;;;;;1.00;0.55;;;;;;;10.90;64.24;95861.34;10518754;28;20067;-66
2023/11/05 07:41:30;;;;;;;1.13;0.52;;;;;;;10.93;64.06;95872.22;10515498;28;20139;-67
2023/11/05 07:46:33;;;;;;;0.20;0.20;;;;;;;10.93;64.21;95882.69;10517797;28;20361;-67
2023/11/05 07:51:37;;;;;;;0.30;0.30;;;;;;;11.08;63.76;95877.38;10518095;28;20097;-67
2023/11/05 07:56:39;;;;;;;1.13;0.60;;;;;;;11.14;63.62;95884.44;10516711;28;20391;-67
2023/11/05 08:01:41;;;;;;;0.30;0.30;;;;;;;11.20;63.66;95892.34;10499480;28;20040;-67
2023/11/05 08:06:45;;;;;;;0.57;0.40;;;;;;;11.09;63.75;95903.31;10516963;28;20110;-66
2023/11/05 08:11:49;;;;;;;0.17;0.17;;;;;;;11.20;63.53;95908.03;10515769;28;20056;-66
2023/11/05 08:16:51;;;;;;;3.22;0.93;;;;;;;11.21;63.73;95925.31;10499356;28;20116;-65
2023/11/05 08:21:54;;;;;;;0.35;0.30;;;;;;;11.29;64.12;95938.25;10512802;28;20410;-65
2023/11/05 08:26:56;;;;;;;1.35;0.20;;;;;;;11.19;64.26;95956.09;10517802;28;20047;-65
2023/11/05 08:31:58;;;;;;;0.30;0.30;;;;;;;11.12;64.70;95973.56;10520555;28;20056;-64
2023/11/05 08:37:00;;;;;;;0.20;0.20;;;;;;;11.07;64.88;95981.16;10500798;28;20044;-65
2023/11/05 08:42:02;;;;;;;1.02;0.80;;;;;;;11.05;64.99;95993.59;10502508;28;20079;-65
2023/11/05 08:47:05;;;;;;;1.60;0.50;;;;;;;11.16;64.89;96000.94;10519742;28;20453;-65
2023/11/05 08:52:07;;;;;;;0.55;0.50;;;;;;;11.21;65.20;96008.22;10501535;28;20063;-65
2023/11/05 08:57:09;;;;;;;0.20;0.20;;;;;;;11.22;65.32;96013.25;10499976;28;20142;-66
2023/11/05 09:02:12;;;;;;;0.40;0.40;;;;;;;11.40;64.68;96012.75;10516015;28;20555;-66
2023/11/05 09:07:14;;;;;;;0.30;0.30;;;;;;;11.58;64.49;96023.53;10514467;28;20388;-65
2023/11/05 09:12:16;;;;;;;1.00;0.90;;;;;;;11.78;63.81;96049.84;10528959;28;20051;-66
2023/11/05 09:17:18;;;;;;;1.13;0.43;;;;;;;11.64;63.10;96062.03;10514822;28;20507;-66
2023/11/05 09:22:20;;;;;;;0.40;0.40;;;;;;;11.74;63.38;96061.69;10515407;28;20040;-65
2023/11/05 09:27:23;;;;;;;0.32;0.20;;;;;;;11.90;62.92;96077.09;10491320;28;20048;-65
2023/11/05 09:32:25;;;;;;;0.50;0.40;;;;;;;12.00;62.64;96093.25;10514992;28;20122;-65
2023/11/05 09:37:29;;;;;;;0.30;0.30;;;;;;;11.99;62.54;96105.53;10512511;28;20052;-65
2023/11/05 09:42:33;;;;;;;1.60;0.65;;;;;;;12.04;62.45;96115.44;10491794;28;20051;-65
2023/11/05 09:47:38;;;;;;;0.20;0.20;;;;;;;12.03;62.54;96119.06;10524271;27;20055;-65
2023/11/05 09:52:44;;;;;;;0.40;0.40;;;;;;;12.03;62.22;96148.69;10508462;28;20547;-65
2023/11/05 09:57:46;;;;;;;0.40;0.40;;;;;;;12.25;61.92;96138.94;10509135;28;20040;-65
2023/11/05 10:02:59;;;;;;;0.75;0.55;;;;;;;12.53;61.28;96157.25;10489008;28;20125;-63
2023/11/05 10:08:05;;;;;;;0.68;0.43;;;;;;;12.66;61.15;96152.06;10522959;28;20420;-71
2023/11/05 10:13:07;;;;;;;0.30;0.30;;;;;;;12.88;60.23;96162.19;10510174;28;20098;-69
2023/11/05 10:18:17;;;;;;;0.20;0.20;;;;;;;13.06;58.49;96174.78;10507498;28;20075;-71
2023/11/05 10:23:22;;;;;;;0.30;0.30;;;;;;;12.82;58.83;96175.31;10525109;28;20044;-70
2023/11/05 10:28:27;;;;;;;0.65;0.30;;;;;;;12.85;59.33;96180.97;10489502;28;20115;-70
2023/11/05 10:33:31;;;;;;;0.30;0.30;;;;;;;12.81;59.32;96182.38;10489501;28;20044;-71
2023/11/05 10:38:33;;;;;;;2.45;0.60;;;;;;;12.70;59.35;96182.91;10484770;28;20052;-70
2023/11/05 10:43:35;;;;;;;0.38;0.30;;;;;;;12.78;59.24;96200.31;10487425;28;20056;-69
2023/11/05 10:48:37;;;;;;;0.30;0.30;;;;;;;12.73;58.79;96207.94;10504641;28;20109;-70
2023/11/05 10:53:43;;;;;;;0.28;0.28;;;;;;;13.01;58.26;96215.69;10504023;28;20093;-70
2023/11/05 10:58:45;;;;;;;0.38;0.38;;;;;;;13.00;58.23;96232.47;10507153;28;20044;-70
2023/11/05 11:03:47;;;;;;;0.30;0.30;;;;;;;12.93;57.53;96233.25;10490561;28;20051;-70
2023/11/05 11:09:05;;;;;;;0.40;0.40;;;;;;;12.90;57.65;96248.56;10506714;28;20551;-70
2023/11/05 11:14:09;;;;;;;0.20;0.20;;;;;;;12.99;58.00;96252.63;10508194;28;20048;-70
2023/11/05 11:19:14;;;;;;;0.30;0.30;;;;;;;12.82;58.13;96257.38;10507340;28;20036;-71
2023/11/05 11:24:43;;;;;;;0.38;0.30;;;;;;;12.78;58.05;96256.16;10489312;28;20101;-71
2023/11/05 11:29:45;;;;;;;0.32;0.32;;;;;;;12.97;57.94;96270.38;10502994;28;20204;-71
2023/11/05 11:34:48;;;;;;;0.73;0.60;;;;;;;13.08;58.11;96276.88;10488063;28;20445;-71
2023/11/05 11:39:51;;;;;;;0.35;0.30;;;;;;;13.23;57.56;96291.47;10507602;28;20055;-71
2023/11/05 11:44:53;;;;;;;0.98;0.88;;;;;;;13.43;57.63;96296.84;10488303;28;20068;-71
2023/11/05 11:50:05;;;;;;;2.53;1.20;;;;;;;13.35;56.82;96310.09;10508667;28;20109;-71
2023/11/05 11:55:07;;;;;;;0.75;0.70;;;;;;;13.27;57.13;96352.25;10492964;28;20330;-71
2023/11/05 12:00:14;;;;;;;0.75;0.75;;;;;;;13.46;56.95;96365.50;10496231;28;20206;-70
2023/11/05 12:05:19;;;;;;;0.30;0.30;;;;;;;13.58;56.44;96368.34;10508351;28;20055;-71
2023/11/05 12:10:21;;;;;;;0.30;0.30;;;;;;;13.46;56.23;96380.41;10511417;28;20051;-71
2023/11/05 12:15:23;;;;;;;0.30;0.30;;;;;;;13.21;56.72;96401.06;10507956;28;20521;-71
2023/11/05 12:20:25;;;;;;;0.30;0.30;;;;;;;13.42;55.75;96413.28;10491184;28;20046;-71
2023/11/05 12:25:27;;;;;;;1.30;0.52;;;;;;;13.50;56.14;96423.66;10525889;28;20036;-71
2023/11/05 12:30:32;;;;;;;0.57;0.50;;;;;;;13.45;56.22;96429.50;10493361;28;20048;-71
2023/11/05 12:35:34;;;;;;;1.77;1.08;;;;;;;13.46;56.18;96441.63;10511335;28;20113;-71
2023/11/05 12:40:37;;;;;;;2.10;1.50;;;;;;;13.14;56.23;96444.81;10493099;28;20072;-71
2023/11/05 12:45:39;;;;;;;0.40;0.32;;;;;;;13.32;56.42;96474.00;10509201;28;20110;-70
2023/11/05 12:50:41;;;;;;;0.40;0.40;;;;;;;13.43;56.02;96498.94;10512255;28;20051;-71
2023/11/05 12:55:44;;;;;;;1.92;1.00;;;;;;;13.27;56.45;96501.84;10493111;28;20167;-70
2023/11/05 13:00:46;;;;;;;3.58;0.93;;;;;;;13.28;56.32;96521.81;10507395;28;20039;-71
2023/11/05 13:05:48;;;;;;;3.55;1.40;;;;;;;13.25;56.16;96530.09;10508095;28;20491;-71
2023/11/05 13:10:52;;;;;;;2.40;0.90;;;;;;;13.39;55.74;96524.72;10510403;28;20062;-71
2023/11/05 13:15:54;;;;;;;2.28;0.93;;;;;;;13.22;55.76;96543.56;10489952;28;20123;-71
2023/11/05 13:20:57;;;;;;;2.13;0.52;;;;;;;13.06;55.62;96562.19;10503026;28;20458;-71
2023/11/05 13:25:59;;;;;;;1.52;0.95;;;;;;;13.05;55.93;96569.25;10485752;28;20137;-71
2023/11/05 13:31:02;;;;;;;1.05;0.65;;;;;;;13.13;54.92;96590.09;10509508;28;20052;-71
2023/11/05 13:36:06;;;;;;;2.83;0.77;;;;;;;13.19;55.34;96604.31;10505932;28;20064;-71
2023/11/05 13:41:09;;;;;;;0.80;0.52;;;;;;;13.30;55.32;96616.91;10510012;28;20055;-71
2023/11/05 13:46:12;;;;;;;1.30;0.57;;;;;;;13.12;55.09;96635.72;10509408;28;20052;-71
2023/11/05 13:51:14;;;;;;;0.90;0.60;;;;;;;12.86;55.56;96656.44;10490890;28;20056;-72
2023/11/05 13:56:17;;;;;;;0.65;0.57;;;;;;;12.80;55.67;96668.47;10506453;28;20667;-71
2023/11/05 14:01:21;;;;;;;1.00;0.70;;;;;;;12.84;55.30;96684.66;10492513;28;20080;-71
2023/11/05 14:06:24;;;;;;;1.60;0.95;;;;;;;12.87;54.91;96695.59;10489689;28;20052;-71
2023/11/05 14:11:26;;;;;;;1.63;0.90;;;;;;;12.82;55.17;96700.56;10526749;27;20048;-71
2023/11/05 14:16:28;;;;;;;0.80;0.60;;;;;;;12.86;55.19;96707.06;10491589;28;20543;-71
2023/11/05 14:21:32;;;;;;;1.05;0.40;;;;;;;12.50;56.38;96726.34;10507513;28;20055;-71
2023/11/05 14:26:35;;;;;;;0.82;0.50;;;;;;;12.42;56.70;96774.44;10502454;28;20055;-69
2023/11/05 14:31:39;;;;;;;0.80;0.80;;;;;;;12.31;56.91;96795.84;10509369;28;20085;-69
2023/11/05 14:36:42;;;;;;;0.40;0.40;;;;;;;12.33;57.05;96801.72;10492451;28;20112;-69
2023/11/05 14:41:44;;;;;;;1.00;0.70;;;;;;;12.39;56.97;96816.75;10509768;28;20052;-70
2023/11/05 14:46:46;;;;;;;0.52;0.50;;;;;;;12.14;56.93;96844.09;10491511;28;20135;-71
2023/11/05 14:51:49;;;;;;;0.57;0.57;;;;;;;12.29;56.76;96854.66;10502196;28;20048;-71
2023/11/05 14:56:51;;;;;;;0.63;0.60;;;;;;;12.44;56.91;96869.44;10506756;28;20062;-71
2023/11/05 15:01:53;;;;;;;0.38;0.38;;;;;;;12.61;55.81;96870.91;10510325;28;20048;-70
2023/11/05 15:06:55;;;;;;;0.98;0.88;;;;;;;12.54;55.40;96877.03;10502956;28;20052;-71
2023/11/05 15:11:57;;;;;;;0.98;0.57;;;;;;;12.45;55.35;96889.41;10521906;28;20411;-70
2023/11/05 15:17:00;;;;;;;2.22;0.70;;;;;;;12.07;54.64;96913.88;10505988;28;20073;-71
2023/11/05 15:22:03;;;;;;;1.23;1.10;;;;;;;12.10;54.86;96930.09;10502228;28;20048;-71
2023/11/05 15:27:06;;;;;;;1.60;0.90;;;;;;;11.99;55.01;96961.09;10509462;28;20032;-71
2023/11/05 15:32:08;;;;;;;2.75;1.20;;;;;;;11.86;55.31;96971.31;10512655;28;20093;-71
2023/11/05 15:37:10;;;;;;;1.95;0.60;;;;;;;11.59;55.33;96984.84;10515075;28;20044;-72
2023/11/05 15:42:12;;;;;;;2.20;1.10;;;;;;;11.51;55.58;97004.00;10479232;28;20641;-71
2023/11/05 15:47:15;;;;;;;0.85;0.85;;;;;;;11.52;55.17;97016.09;10510600;28;20064;-71
2023/11/05 15:52:17;;;;;;;1.27;0.93;;;;;;;11.40;55.99;97040.19;10509689;28;20048;-72
2023/11/05 15:57:19;;;;;;;0.90;0.70;;;;;;;11.27;57.14;97051.97;10514808;28;20424;-71
2023/11/05 16:02:21;;;;;;;1.85;0.82;;;;;;;11.08;58.36;97064.56;10513068;28;21024;-71
2023/11/05 16:07:23;;;;;;;0.70;0.70;;;;;;;11.13;58.59;97063.09;10513016;28;20087;-72
2023/11/05 16:12:26;;;;;;;1.02;0.82;;;;;;;11.22;58.40;97103.97;10512934;28;20138;-71
2023/11/05 16:17:28;;;;;;;2.25;1.40;;;;;;;11.10;59.23;97113.13;10514450;28;20127;-71
2023/11/05 16:22:30;;;;;;;1.35;0.95;;;;;;;11.12;59.63;97126.88;10511031;28;20548;-71
2023/11/05 16:27:32;;;;;;;1.17;0.98;;;;;;;10.97;59.30;97151.97;10496413;28;20050;-64
2023/11/05 16:32:34;;;;;;;1.88;1.20;;;;;;;10.73;60.28;97169.41;10514067;28;20376;-64
2023/11/05 16:37:38;;;;;;;1.48;0.98;;;;;;;10.55;60.01;97181.75;10513132;28;20966;-65
2023/11/05 16:42:40;;;;;;;2.47;1.10;;;;;;;10.39;59.96;97209.47;10502534;28;20078;-64
2023/11/05 16:47:42;;;;;;;4.25;1.33;;;;;;;10.23;59.92;97229.47;10499992;28;20044;-64
2023/11/05 16:52:44;;;;;;;0.80;0.80;;;;;;;10.17;60.08;97249.19;10501203;28;20032;-63
2023/11/05 16:57:47;;;;;;;0.77;0.77;;;;;;;10.21;59.84;97266.22;10503983;28;20040;-65
2023/11/05 17:02:49;;;;;;;2.05;1.10;;;;;;;10.18;59.57;97271.72;10496927;28;20044;-63
2023/11/05 17:07:51;;;;;;;1.92;1.15;;;;;;;10.11;59.46;97288.16;10485686;28;20054;-64
2023/11/05 17:12:54;;;;;;;2.97;1.88;;;;;;;10.13;59.30;97302.72;10509169;28;20048;-64
2023/11/05 17:17:57;;;;;;;1.70;1.10;;;;;;;10.12;59.06;97310.69;10512406;28;20051;-64
2023/11/05 17:23:00;;;;;;;3.28;2.03;;;;;;;10.10;59.13;97342.19;10511239;28;21124;-63
2023/11/05 17:28:02;;;;;;;3.92;1.20;;;;;;;10.00;58.85;97351.88;10509985;28;20044;-64
2023/11/05 17:33:06;;;;;;;1.40;0.90;;;;;;;10.00;58.87;97380.59;10508345;28;20052;-64
2023/11/05 17:38:08;;;;;;;2.65;1.25;;;;;;;9.99;58.61;97380.75;10526040;28;20091;-65
2023/11/05 17:43:10;;;;;;;1.50;0.82;;;;;;;9.95;58.70;97402.91;10507249;28;20051;-64
2023/11/05 17:48:12;;;;;;;1.17;1.02;;;;;;;9.87;58.75;97424.53;10506059;28;20051;-64
2023/11/05 17:53:15;;;;;;;2.60;1.13;;;;;;;9.92;58.74;97427.53;10502855;28;20452;-64
2023/11/05 17:58:17;;;;;;;2.20;1.10;;;;;;;9.88;58.81;97438.41;10506456;28;20052;-63
2023/11/05 18:03:20;;;;;;;3.83;1.42;;;;;;;9.92;58.55;97458.03;10505452;28;20143;-64
2023/11/05 18:08:24;;;;;;;1.67;1.20;;;;;;;9.84;58.86;97465.78;10511362;28;20083;-64
2023/11/05 18:13:26;;;;;;;1.50;1.02;;;;;;;9.83;58.92;97482.41;10509666;28;20088;-64
2023/11/05 18:18:29;;;;;;;2.22;1.00;;;;;;;9.80;58.94;97498.34;10502623;28;20036;-64
2023/11/05 18:23:31;;;;;;;2.33;1.02;;;;;;;9.73;59.01;97507.75;10482685;28;20047;-64
2023/11/05 18:28:33;;;;;;;1.42;1.00;;;;;;;9.68;59.28;97523.84;10507665;28;20523;-63
2023/11/05 18:33:35;;;;;;;1.65;0.98;;;;;;;9.84;59.08;97536.25;10505567;28;20124;-64
2023/11/05 18:38:37;;;;;;;2.47;0.88;;;;;;;9.84;59.09;97546.69;10509002;28;20043;-64
2023/11/05 18:43:39;;;;;;;2.13;1.00;;;;;;;9.81;59.34;97557.44;10507928;28;20408;-64
2023/11/05 18:48:43;;;;;;;1.88;1.10;;;;;;;9.84;59.31;97570.19;10506021;28;20059;-64
2023/11/05 18:53:46;;;;;;;1.50;1.00;;;;;;;9.82;59.75;97579.97;10503831;28;20048;-64
2023/11/05 18:58:48;;;;;;;3.63;1.25;;;;;;;9.85;59.72;97597.97;10488901;28;20048;-64
2023/11/05 19:03:50;;;;;;;3.03;1.40;;;;;;;10.08;59.67;97605.25;10505813;28;20055;-64
2023/11/05 19:08:53;;;;;;;1.95;1.00;;;;;;;10.24;59.37;97609.84;10508861;28;20316;-63
2023/11/05 19:13:55;;;;;;;2.80;1.83;;;;;;;10.26;59.28;97620.97;10490231;28;20051;-64
2023/11/05 19:19:15;;;;;;;2.63;0.82;;;;;;;10.08;59.39;97638.38;10509467;28;20040;-63
2023/11/05 19:24:17;;;;;;;1.95;1.20;;;;;;;10.01;59.79;97645.97;10525534;28;20097;-64
2023/11/05 19:29:19;;;;;;;2.63;1.30;;;;;;;9.91;60.06;97660.03;10510958;28;20043;-64
2023/11/05 19:34:21;;;;;;;2.38;1.13;;;;;;;9.82;60.29;97679.16;10507284;28;20152;-64
2023/11/05 19:39:23;;;;;;;4.20;1.20;;;;;;;9.87;59.92;97675.16;10510280;28;20529;-63
2023/11/05 19:44:25;;;;;;;3.30;1.38;;;;;;;9.84;60.04;97685.06;10491049;28;20071;-63
2023/11/05 19:49:28;;;;;;;2.88;1.00;;;;;;;9.86;60.03;97701.41;10510743;28;20084;-64
2023/11/05 19:54:30;;;;;;;1.60;1.13;;;;;;;9.75;60.21;97718.03;10510510;28;20151;-64
2023/11/05 19:59:32;;;;;;;3.38;1.15;;;;;;;9.92;60.05;97725.16;10507628;28;20043;-64
2023/11/05 20:04:34;;;;;;;0.90;0.80;;;;;;;10.09;59.64;97734.91;10491606;28;20462;-64
2023/11/05 20:09:37;;;;;;;1.98;1.10;;;;;;;10.19;59.53;97740.09;10510443;28;20032;-65
2023/11/05 20:14:40;;;;;;;1.63;0.77;;;;;;;10.26;59.47;97754.19;10514984;28;20139;-64
2023/11/05 20:19:42;;;;;;;1.20;0.90;;;;;;;10.30;59.48;97774.69;10483021;28;20036;-64
2023/11/05 20:24:45;;;;;;;2.80;0.93;;;;;;;10.43;59.16;97771.75;10517488;28;20051;-63
2023/11/05 20:29:47;;;;;;;1.65;1.05;;;;;;;10.39;59.15;97793.91;10518520;28;20124;-64
2023/11/05 20:34:49;;;;;;;1.98;1.00;;;;;;;10.46;59.25;97795.00;10518512;28;21041;-63
2023/11/05 20:39:51;;;;;;;3.28;1.02;;;;;;;10.61;59.20;97808.41;10502629;28;20044;-63
2023/11/05 20:44:53;;;;;;;2.35;0.75;;;;;;;10.45;59.19;97812.47;10519975;28;20139;-63
2023/11/05 20:49:55;;;;;;;1.90;1.00;;;;;;;10.40;59.38;97821.69;10520928;28;20052;-63
2023/11/05 20:54:58;;;;;;;1.15;0.88;;;;;;;10.35;59.55;97835.19;10519964;28;20052;-63
2023/11/05 21:00:00;;;;;;;1.02;0.80;;;;;;;10.48;59.37;97850.56;10499038;28;20072;-64
2023/11/05 21:05:07;;;;;;;4.20;1.17;;;;;;;10.58;59.30;97851.38;10496706;28;20036;-64
2023/11/05 21:10:10;;;;;;;1.40;0.90;;;;;;;10.60;59.13;97866.91;10495134;28;20200;-64
2023/11/05 21:15:12;;;;;;;2.33;1.05;;;;;;;10.67;58.83;97875.81;10515234;28;20052;-64
2023/11/05 21:20:14;;;;;;;2.80;1.35;;;;;;;10.69;58.71;97892.16;10516416;28;20164;-63
2023/11/05 21:25:16;;;;;;;1.23;0.65;;;;;;;10.66;58.68;97887.25;10513461;28;20048;-64
2023/11/05 21:30:18;;;;;;;4.47;0.60;;;;;;;10.66;58.45;97916.84;10514027;28;20051;-63
2023/11/05 21:35:20;;;;;;;0.85;0.73;;;;;;;10.57;58.17;97909.00;10513642;28;20142;-64
2023/11/05 21:40:23;;;;;;;1.08;0.73;;;;;;;10.62;58.29;97922.47;10512839;28;20460;-64
2023/11/05 21:45:28;;;;;;;0.90;0.70;;;;;;;10.54;58.30;97923.19;10514589;28;20040;-64
2023/11/05 21:50:30;;;;;;;1.88;0.85;;;;;;;10.43;58.29;97936.38;10509561;28;20127;-63
2023/11/05 21:55:32;;;;;;;0.90;0.90;;;;;;;10.22;58.86;97939.13;10496819;28;20048;-63
2023/11/05 22:00:34;;;;;;;2.45;1.10;;;;;;;10.15;58.74;97953.72;10512588;28;20131;-63
2023/11/05 22:05:36;;;;;;;2.45;1.10;;;;;;;10.18;58.70;97963.88;10512850;28;20063;-63
2023/11/05 22:10:38;;;;;;;1.20;0.90;;;;;;;10.23;58.36;97963.50;10511084;28;20125;-64
2023/11/05 22:15:40;;;;;;;4.15;0.95;;;;;;;10.36;58.50;97974.47;10491232;28;20062;-63
2023/11/05 22:20:42;;;;;;;3.78;0.85;;;;;;;10.45;58.15;97973.66;10511730;28;20147;-63
2023/11/05 22:25:44;;;;;;;3.40;0.70;;;;;;;10.50;58.29;97974.09;10512129;28;20044;-63
2023/11/05 22:30:48;;;;;;;1.63;0.90;;;;;;;10.49;58.13;97980.25;10512788;28;20048;-63
2023/11/05 22:35:50;;;;;;;1.65;1.00;;;;;;;10.52;58.04;97979.16;10524431;27;20058;-63
2023/11/05 22:40:53;;;;;;;1.52;1.30;;;;;;;10.52;57.88;97978.19;10513309;28;20036;-63
2023/11/05 22:45:55;;;;;;;2.92;0.90;;;;;;;10.49;58.08;97983.72;10494873;28;20051;-63
2023/11/05 22:50:57;;;;;;;2.35;0.95;;;;;;;10.45;58.04;97987.56;10526463;28;20380;-63
2023/11/05 22:55:59;;;;;;;1.42;0.85;;;;;;;10.31;58.33;97987.13;10493691;28;20048;-63
2023/11/05 23:01:03;;;;;;;2.00;0.90;;;;;;;10.33;58.26;97983.44;10525801;28;20047;-63
2023/11/05 23:06:05;;;;;;;1.52;1.00;;;;;;;10.18;58.41;98000.47;10510591;28;20040;-63
2023/11/05 23:11:07;;;;;;;1.75;0.93;;;;;;;10.05;58.77;98001.69;10510813;28;20131;-63
2023/11/05 23:16:09;;;;;;;2.78;1.05;;;;;;;10.03;58.65;98011.44;10492777;28;20542;-63
2023/11/05 23:21:13;;;;;;;2.03;1.30;;;;;;;10.03;58.90;98017.50;10512629;28;20109;-64
2023/11/05 23:26:16;;;;;;;1.77;1.05;;;;;;;10.16;58.80;98019.84;10490816;28;20075;-64
2023/11/05 23:31:20;;;;;;;1.88;0.80;;;;;;;10.21;58.76;98017.66;10509760;28;20112;-64